Time;durP1;ratioP1;P1;durP2;ratioP2;P2;SDS_P1;SDS_P2;PMS_P1;PMS_P2;Temp;Humidity;BMP_temperature;BMP_pressure;BME280_temperature;BME280_humidity;BME280_pressure;Samples;Min_cycle;Max_cycle;Signal;HPM_P1;HPM_P2
2024/01/01 00:00:51;;;;;;;76.30;41.95;;;7.60;99.90;;;;;;4952434;29;20043;-83
2024/01/01 00:03:18;;;;;;;71.22;40.38;;;7.40;99.90;;;;;;4950786;29;20039;-83
2024/01/01 00:05:44;;;;;;;51.83;30.05;;;7.80;99.90;;;;;;4948996;29;20073;-82
2024/01/01 00:08:11;;;;;;;54.58;28.90;;;7.40;99.90;;;;;;4946633;29;20548;-82
2024/01/01 00:10:38;;;;;;;54.92;32.20;;;7.50;99.90;;;;;;4938295;29;20048;-82
2024/01/01 00:13:04;;;;;;;65.85;37.28;;;8.40;99.90;;;;;;4936794;29;20044;-82
2024/01/01 00:15:31;;;;;;;66.93;36.70;;;7.50;99.90;;;;;;4967751;29;20473;-82
2024/01/01 00:17:58;;;;;;;63.50;34.42;;;7.90;99.90;;;;;;4950060;29;20039;-82
2024/01/01 00:20:24;;;;;;;70.13;37.20;;;7.50;99.90;;;;;;4968862;29;20039;-82
2024/01/01 00:22:51;;;;;;;65.85;35.00;;;7.40;99.90;;;;;;4958970;29;20044;-82
2024/01/01 00:25:18;;;;;;;76.38;40.72;;;7.50;99.90;;;;;;4949449;29;20040;-82
2024/01/01 00:27:44;;;;;;;72.97;38.17;;;7.70;99.90;;;;;;4952571;29;20051;-82
2024/01/01 00:30:11;;;;;;;61.42;33.90;;;7.90;99.90;;;;;;4952387;29;20043;-82
2024/01/01 00:32:38;;;;;;;55.42;30.98;;;7.50;99.90;;;;;;4966125;29;20044;-82
2024/01/01 00:35:05;;;;;;;59.92;34.70;;;7.50;99.90;;;;;;4968188;29;20511;-82
2024/01/01 00:37:32;;;;;;;54.40;29.63;;;7.60;99.90;;;;;;4952765;29;20147;-82
2024/01/01 00:39:58;;;;;;;54.85;26.70;;;7.60;99.90;;;;;;4964476;29;20131;-82
2024/01/01 00:42:25;;;;;;;45.13;25.08;;;7.60;99.90;;;;;;4943729;29;20039;-82
2024/01/01 00:44:52;;;;;;;40.90;21.83;;;7.60;99.90;;;;;;4955658;29;20055;-82
2024/01/01 00:47:18;;;;;;;40.53;22.20;;;7.80;99.90;;;;;;4949109;29;20054;-82
2024/01/01 00:49:45;;;;;;;39.08;19.85;;;8.30;99.90;;;;;;4953669;29;20055;-82
2024/01/01 00:52:12;;;;;;;34.50;17.00;;;7.70;99.90;;;;;;4952617;29;20049;-82
2024/01/01 00:54:38;;;;;;;42.10;18.70;;;8.00;99.90;;;;;;4952070;29;20075;-82
2024/01/01 00:57:05;;;;;;;32.40;17.60;;;7.90;99.90;;;;;;4959431;29;20118;-82
2024/01/01 00:59:32;;;;;;;33.60;16.73;;;8.50;99.90;;;;;;4963043;29;20515;-82
2024/01/01 01:01:58;;;;;;;33.33;18.45;;;7.70;99.90;;;;;;4952334;29;20047;-82
2024/01/01 01:04:25;;;;;;;40.67;19.50;;;7.70;99.90;;;;;;4968113;29;20146;-82
2024/01/01 01:06:52;;;;;;;43.83;21.42;;;8.60;99.90;;;;;;4951981;29;20048;-82
2024/01/01 01:09:19;;;;;;;45.60;22.80;;;7.70;99.90;;;;;;4948632;29;20044;-82
2024/01/01 01:11:45;;;;;;;42.05;20.80;;;8.10;99.90;;;;;;4953715;29;20078;-82
2024/01/01 01:14:12;;;;;;;42.70;19.83;;;7.80;99.90;;;;;;4931336;29;20048;-81
2024/01/01 01:16:39;;;;;;;38.22;20.23;;;8.80;99.90;;;;;;4928225;29;20036;-82
2024/01/01 01:19:06;;;;;;;36.42;19.23;;;7.80;99.90;;;;;;4932082;29;20051;-82
2024/01/01 01:21:32;;;;;;;42.65;20.92;;;8.30;99.90;;;;;;4933208;29;20058;-82
2024/01/01 01:23:59;;;;;;;39.08;19.33;;;7.80;99.90;;;;;;4934829;29;20040;-82
2024/01/01 01:26:25;;;;;;;34.47;18.20;;;7.80;99.90;;;;;;4936571;29;20054;-82
2024/01/01 01:28:52;;;;;;;36.40;18.15;;;7.80;99.90;;;;;;4936342;29;20496;-82
2024/01/01 01:31:19;;;;;;;35.42;16.92;;;7.80;99.90;;;;;;4936122;29;20179;-82
2024/01/01 01:33:45;;;;;;;36.97;17.80;;;8.50;99.90;;;;;;4951839;29;20074;-82
2024/01/01 01:36:14;;;;;;;27.10;16.13;;;7.90;99.90;;;;;;4946503;29;20528;-82
2024/01/01 01:38:41;;;;;;;29.08;14.93;;;7.80;99.90;;;;;;4952176;29;20409;-82
2024/01/01 01:41:07;;;;;;;26.40;13.40;;;7.80;99.90;;;;;;4923716;29;20044;-81
2024/01/01 01:43:34;;;;;;;30.08;14.35;;;8.30;99.90;;;;;;4959086;29;20051;-81
2024/01/01 01:46:02;;;;;;;31.70;12.90;;;7.80;99.90;;;;;;4932750;29;20482;-82
2024/01/01 01:48:30;;;;;;;23.58;12.43;;;7.80;99.90;;;;;;4935687;29;20505;-82
2024/01/01 01:50:57;;;;;;;33.08;13.30;;;7.80;99.90;;;;;;4943724;29;20115;-82
2024/01/01 01:53:25;;;;;;;24.10;12.85;;;7.80;99.90;;;;;;4958120;29;20058;-82
2024/01/01 01:55:54;;;;;;;27.42;14.00;;;7.80;99.90;;;;;;4924579;29;20044;-82
2024/01/01 01:58:21;;;;;;;30.42;15.52;;;7.80;99.90;;;;;;4923155;29;20032;-81
2024/01/01 02:00:49;;;;;;;31.95;16.38;;;8.20;99.90;;;;;;4933204;29;20116;-82
2024/01/01 02:03:16;;;;;;;37.47;15.90;;;7.90;99.90;;;;;;4948344;29;20051;-81
2024/01/01 02:05:43;;;;;;;30.38;15.30;;;7.80;99.90;;;;;;4960209;29;20504;-82
2024/01/01 02:08:09;;;;;;;29.70;15.20;;;7.80;99.90;;;;;;4928863;29;20131;-82
2024/01/01 02:10:36;;;;;;;28.35;15.05;;;7.80;99.90;;;;;;4942373;29;20087;-82
2024/01/01 02:13:03;;;;;;;29.42;14.90;;;7.80;99.90;;;;;;4954973;29;20460;-82
2024/01/01 02:15:30;;;;;;;33.97;15.57;;;7.70;99.90;;;;;;4968829;29;20118;-82
2024/01/01 02:17:57;;;;;;;27.80;14.45;;;7.70;99.90;;;;;;4952772;29;20042;-82
2024/01/01 02:20:24;;;;;;;34.63;16.25;;;7.70;99.90;;;;;;4955719;29;20131;-82
2024/01/01 02:22:56;;;;;;;33.88;15.77;;;8.50;99.90;;;;;;4954889;29;20557;-82
2024/01/01 02:25:23;;;;;;;31.02;15.57;;;8.60;99.90;;;;;;4970552;29;20050;-82
2024/01/01 02:27:49;;;;;;;29.88;15.35;;;8.30;99.90;;;;;;4954781;29;20126;-82
2024/01/01 02:30:16;;;;;;;32.38;15.48;;;8.10;99.90;;;;;;4945438;29;20051;-82
2024/01/01 02:32:43;;;;;;;30.70;15.85;;;7.70;99.90;;;;;;4952791;29;20551;-82
2024/01/01 02:35:10;;;;;;;30.23;15.05;;;7.70;99.90;;;;;;4983391;29;20047;-82
2024/01/01 02:37:37;;;;;;;28.95;14.85;;;7.70;99.90;;;;;;4970344;29;20156;-82
2024/01/01 02:40:05;;;;;;;32.25;15.10;;;8.40;99.90;;;;;;4954453;29;20413;-82
2024/01/01 02:42:32;;;;;;;30.25;13.75;;;7.70;99.90;;;;;;4952137;29;20035;-82
2024/01/01 02:44:59;;;;;;;29.33;14.18;;;7.70;99.90;;;;;;4968724;29;20043;-82
2024/01/01 02:47:25;;;;;;;28.63;15.00;;;7.70;99.90;;;;;;4954215;29;20436;-82
2024/01/01 02:49:52;;;;;;;29.50;15.13;;;7.70;99.90;;;;;;4970067;29;20047;-81
2024/01/01 02:52:19;;;;;;;28.75;14.45;;;7.70;99.90;;;;;;4954168;29;20050;-82
2024/01/01 02:54:45;;;;;;;23.63;12.73;;;7.60;99.90;;;;;;4954184;29;20058;-82
2024/01/01 02:57:12;;;;;;;25.30;12.82;;;7.60;99.90;;;;;;4954202;29;20493;-82
2024/01/01 02:59:40;;;;;;;24.55;12.48;;;7.60;99.90;;;;;;4954182;29;20043;-82
2024/01/01 03:02:07;;;;;;;25.40;12.57;;;7.80;99.90;;;;;;4953855;29;20043;-82
2024/01/01 03:04:34;;;;;;;24.58;12.45;;;7.60;99.90;;;;;;4968982;29;20050;-82
2024/01/01 03:07:01;;;;;;;26.13;12.73;;;8.30;99.90;;;;;;4954014;29;20127;-82
2024/01/01 03:09:27;;;;;;;24.92;11.50;;;7.60;99.90;;;;;;4947921;29;20055;-82
2024/01/01 03:11:54;;;;;;;23.55;10.85;;;7.60;99.90;;;;;;4938244;29;20398;-82
2024/01/01 03:14:20;;;;;;;19.27;10.30;;;7.60;99.90;;;;;;4953881;29;20047;-82
2024/01/01 03:16:47;;;;;;;20.40;10.13;;;8.50;99.90;;;;;;4926938;29;20047;-82
2024/01/01 03:19:14;;;;;;;20.05;10.02;;;8.50;99.90;;;;;;4921966;29;20040;-82
2024/01/01 03:21:40;;;;;;;19.85;8.82;;;7.50;99.90;;;;;;4949361;29;20078;-82
2024/01/01 03:24:07;;;;;;;16.92;8.43;;;8.00;99.90;;;;;;4930801;29;20048;-81
2024/01/01 03:26:34;;;;;;;19.38;7.82;;;8.00;99.90;;;;;;4938183;29;20075;-81
2024/01/01 03:29:01;;;;;;;18.20;7.93;;;7.30;99.90;;;;;;4943511;29;20506;-81
2024/01/01 03:31:27;;;;;;;17.50;7.55;;;7.30;99.90;;;;;;4946744;29;20055;-81
2024/01/01 03:33:55;;;;;;;17.23;8.15;;;7.20;99.90;;;;;;4938085;29;20031;-81
2024/01/01 03:36:21;;;;;;;16.92;7.10;;;7.10;99.90;;;;;;4931839;29;20062;-81
2024/01/01 03:38:48;;;;;;;20.13;7.93;;;7.10;99.90;;;;;;4953776;29;20039;-81
2024/01/01 03:41:15;;;;;;;15.88;7.00;;;7.00;99.90;;;;;;4937519;29;20051;-80
2024/01/01 03:43:41;;;;;;;13.43;7.03;;;7.00;99.90;;;;;;4937699;29;20512;-81
2024/01/01 03:46:08;;;;;;;14.88;6.32;;;7.50;99.90;;;;;;4936168;29;20057;-81
2024/01/01 03:48:35;;;;;;;17.58;6.25;;;6.90;99.90;;;;;;4968358;29;20091;-81
2024/01/01 03:51:02;;;;;;;13.95;6.03;;;7.00;99.90;;;;;;4953137;29;20126;-81
2024/01/01 03:53:29;;;;;;;10.90;4.88;;;6.90;99.90;;;;;;4946599;29;20131;-81
2024/01/01 03:55:55;;;;;;;11.13;4.65;;;6.90;99.90;;;;;;4956535;29;20040;-80
2024/01/01 03:58:22;;;;;;;13.45;3.80;;;6.90;99.90;;;;;;4937509;29;20046;-81
2024/01/01 04:00:48;;;;;;;9.02;3.45;;;7.40;99.90;;;;;;4937727;29;20405;-81
2024/01/01 04:03:15;;;;;;;9.02;3.20;;;7.00;99.90;;;;;;4939650;29;20114;-81
2024/01/01 04:05:42;;;;;;;8.95;2.90;;;7.60;99.90;;;;;;4945018;29;20057;-81
2024/01/01 04:08:08;;;;;;;9.13;3.13;;;6.90;99.90;;;;;;4949637;29;20036;-81
2024/01/01 04:10:35;;;;;;;10.13;3.53;;;6.80;99.90;;;;;;4944594;29;20051;-81
2024/01/01 04:13:02;;;;;;;6.45;2.45;;;6.80;99.90;;;;;;4964850;29;20039;-80
2024/01/01 04:15:28;;;;;;;10.80;3.53;;;6.80;99.90;;;;;;4972006;29;20039;-80
2024/01/01 04:17:55;;;;;;;11.68;3.47;;;7.00;99.90;;;;;;4941770;29;20047;-81
2024/01/01 04:20:21;;;;;;;13.70;2.60;;;7.90;99.90;;;;;;4952245;29;20504;-81
2024/01/01 04:22:51;;;;;;;8.32;2.42;;;6.70;99.90;;;;;;4968738;29;20078;-81
2024/01/01 04:25:18;;;;;;;7.93;2.17;;;6.70;99.90;;;;;;4941364;29;20048;-81
2024/01/01 04:27:45;;;;;;;4.97;1.98;;;6.70;99.90;;;;;;4952750;29;20127;-81
2024/01/01 04:30:13;;;;;;;9.65;2.30;;;6.70;99.90;;;;;;4939128;29;20131;-81
2024/01/01 04:32:40;;;;;;;8.70;2.20;;;6.70;99.90;;;;;;4952455;29;20047;-80
2024/01/01 04:35:07;;;;;;;7.05;2.20;;;6.70;99.90;;;;;;4949936;29;20040;-80
2024/01/01 04:37:33;;;;;;;7.60;2.17;;;6.70;99.90;;;;;;4952557;29;20078;-81
2024/01/01 04:40:00;;;;;;;9.32;2.80;;;6.60;99.90;;;;;;4952129;29;20040;-81
2024/01/01 04:42:27;;;;;;;6.75;2.45;;;6.70;99.90;;;;;;4949096;29;20032;-81
2024/01/01 04:44:53;;;;;;;7.20;2.20;;;6.70;99.90;;;;;;4956575;29;20048;-81
2024/01/01 04:47:22;;;;;;;8.38;1.92;;;6.70;99.90;;;;;;4952792;29;20031;-81
2024/01/01 04:49:48;;;;;;;7.45;1.92;;;6.60;99.90;;;;;;4953720;29;20115;-80
2024/01/01 04:52:15;;;;;;;7.60;2.10;;;6.80;99.90;;;;;;4939836;29;20139;-80
2024/01/01 04:54:42;;;;;;;9.00;2.15;;;6.60;99.90;;;;;;4946144;29;20547;-80
2024/01/01 04:57:08;;;;;;;5.80;2.03;;;6.80;99.90;;;;;;4942130;29;20122;-80
2024/01/01 04:59:35;;;;;;;7.05;2.00;;;6.60;99.90;;;;;;4952058;29;20043;-80
2024/01/01 05:02:01;;;;;;;6.90;2.35;;;6.60;99.90;;;;;;4968210;29;20044;-81
2024/01/01 05:04:28;;;;;;;5.32;1.50;;;6.60;99.90;;;;;;4964774;29;20513;-80
2024/01/01 05:06:54;;;;;;;8.27;2.10;;;7.10;99.90;;;;;;4942255;29;20046;-80
2024/01/01 05:09:21;;;;;;;7.75;2.22;;;6.60;99.90;;;;;;4962309;29;20042;-81
2024/01/01 05:11:48;;;;;;;8.10;2.03;;;7.30;99.90;;;;;;4961478;29;20046;-81
2024/01/01 05:14:14;;;;;;;7.28;2.05;;;6.60;99.90;;;;;;4936332;29;20629;-81
2024/01/01 05:16:44;;;;;;;6.43;1.83;;;6.50;99.90;;;;;;4936256;29;20044;-81
2024/01/01 05:19:11;;;;;;;8.70;1.73;;;7.00;99.90;;;;;;4939810;29;20453;-81
2024/01/01 05:21:37;;;;;;;12.93;2.63;;;6.90;99.90;;;;;;4924739;29;20040;-80
2024/01/01 05:24:04;;;;;;;7.50;2.00;;;6.50;99.90;;;;;;4934518;29;20383;-81
2024/01/01 05:26:31;;;;;;;5.40;1.73;;;6.50;99.90;;;;;;4936079;29;20051;-81
2024/01/01 05:28:57;;;;;;;7.72;1.80;;;6.60;99.90;;;;;;4935927;29;20044;-81
2024/01/01 05:31:24;;;;;;;6.03;1.60;;;6.50;99.90;;;;;;4936654;29;20040;-81
2024/01/01 05:33:50;;;;;;;6.60;2.05;;;6.50;99.90;;;;;;4934076;29;20044;-81
2024/01/01 05:36:17;;;;;;;9.43;2.08;;;7.50;99.90;;;;;;4948090;29;20036;-81
2024/01/01 05:38:44;;;;;;;10.75;1.95;;;6.50;99.90;;;;;;4943082;29;20401;-81
2024/01/01 05:41:11;;;;;;;14.32;2.17;;;6.50;99.90;;;;;;4955258;29;20039;-81
2024/01/01 05:43:38;;;;;;;9.00;1.85;;;6.50;99.90;;;;;;4933233;29;20106;-80
2024/01/01 05:46:05;;;;;;;8.00;1.90;;;7.10;99.90;;;;;;4937398;29;20039;-81
2024/01/01 05:48:32;;;;;;;8.27;2.30;;;6.50;99.90;;;;;;4955416;29;20043;-81
2024/01/01 05:50:59;;;;;;;5.80;1.80;;;6.50;99.90;;;;;;4939908;29;20393;-81
2024/01/01 05:53:26;;;;;;;6.45;1.98;;;6.50;99.90;;;;;;4946525;29;20039;-81
2024/01/01 05:55:52;;;;;;;11.60;2.05;;;6.60;99.90;;;;;;4943604;29;20047;-80
2024/01/01 05:58:19;;;;;;;11.60;1.98;;;7.10;99.90;;;;;;4939573;29;20401;-80
2024/01/01 06:00:45;;;;;;;9.30;1.80;;;6.60;99.90;;;;;;4939595;29;20051;-81
2024/01/01 06:03:12;;;;;;;7.80;1.83;;;6.70;99.90;;;;;;4939458;29;20056;-81
2024/01/01 06:05:39;;;;;;;8.80;2.03;;;6.50;99.90;;;;;;4939563;29;20047;-81
2024/01/01 06:08:05;;;;;;;11.85;1.85;;;6.50;99.90;;;;;;4951874;29;20557;-81
2024/01/01 06:10:32;;;;;;;11.27;2.33;;;6.50;99.90;;;;;;4947367;29;20067;-81
2024/01/01 06:12:59;;;;;;;8.30;1.70;;;6.50;99.90;;;;;;4951306;29;20412;-81
2024/01/01 06:15:27;;;;;;;10.25;2.08;;;6.50;99.90;;;;;;4970947;29;20075;-80
2024/01/01 06:17:54;;;;;;;7.68;2.03;;;7.40;99.90;;;;;;4947227;29;20481;-81
2024/01/01 06:20:20;;;;;;;12.13;2.60;;;6.50;99.90;;;;;;4965858;29;20048;-81
2024/01/01 06:22:47;;;;;;;6.25;2.00;;;6.50;99.90;;;;;;4954741;29;20126;-81
2024/01/01 06:25:14;;;;;;;9.82;1.90;;;6.70;99.90;;;;;;4952945;29;20050;-80
2024/01/01 06:27:40;;;;;;;11.13;1.92;;;6.60;99.90;;;;;;4948070;29;20084;-81
2024/01/01 06:30:07;;;;;;;8.55;2.10;;;6.60;99.90;;;;;;4951521;29;20059;-81
2024/01/01 06:32:34;;;;;;;12.35;1.88;;;6.60;99.90;;;;;;4944243;29;20042;-81
2024/01/01 06:35:00;;;;;;;5.60;1.80;;;6.60;99.90;;;;;;4954120;29;20060;-81
2024/01/01 06:37:27;;;;;;;3.83;1.50;;;6.60;99.90;;;;;;4961037;29;20036;-81
2024/01/01 06:39:54;;;;;;;9.55;1.90;;;6.60;99.90;;;;;;4965433;29;20031;-81
2024/01/01 06:42:20;;;;;;;11.18;1.95;;;6.60;99.90;;;;;;4946137;29;20576;-81
2024/01/01 06:44:47;;;;;;;5.88;1.52;;;6.60;99.90;;;;;;4970179;29;20148;-81
2024/01/01 06:47:14;;;;;;;7.05;1.50;;;7.20;99.90;;;;;;4968296;29;20079;-81
2024/01/01 06:49:40;;;;;;;7.20;1.88;;;6.70;99.90;;;;;;4960417;29;20135;-81
2024/01/01 06:52:07;;;;;;;7.47;1.98;;;6.60;99.90;;;;;;4970064;29;20130;-80
2024/01/01 06:54:37;;;;;;;15.30;2.22;;;6.70;99.90;;;;;;4970067;29;20032;-80
2024/01/01 06:57:04;;;;;;;9.27;2.38;;;7.20;99.90;;;;;;4970195;29;20050;-80
2024/01/01 06:59:30;;;;;;;9.90;2.67;;;6.70;99.90;;;;;;4967713;29;20043;-81
2024/01/01 07:02:00;;;;;;;6.03;1.88;;;6.70;99.90;;;;;;4972381;29;20040;-81
2024/01/01 07:04:27;;;;;;;10.65;2.30;;;6.70;99.90;;;;;;4954245;28;20040;-80
2024/01/01 07:06:53;;;;;;;8.90;2.22;;;6.70;99.90;;;;;;4975904;29;20051;-81
2024/01/01 07:09:20;;;;;;;9.07;1.90;;;6.70;99.90;;;;;;4947854;29;20083;-81
2024/01/01 07:11:47;;;;;;;8.90;2.33;;;6.70;99.90;;;;;;4919351;29;20405;-81
2024/01/01 07:14:14;;;;;;;12.73;2.67;;;6.70;99.90;;;;;;4948927;29;20094;-81
2024/01/01 07:16:40;;;;;;;11.10;2.30;;;6.80;99.90;;;;;;4941489;29;20043;-81
2024/01/01 07:19:07;;;;;;;11.77;1.88;;;6.70;99.90;;;;;;4938040;29;20040;-80
2024/01/01 07:21:33;;;;;;;9.18;2.00;;;6.70;99.90;;;;;;4953904;29;20535;-81
2024/01/01 07:24:00;;;;;;;10.88;2.50;;;6.80;99.90;;;;;;4941398;29;20067;-81
2024/01/01 07:26:27;;;;;;;11.35;2.15;;;6.70;99.90;;;;;;4938205;29;20067;-81
2024/01/01 07:28:54;;;;;;;9.07;2.33;;;6.70;99.90;;;;;;4941076;29;20486;-80
2024/01/01 07:31:21;;;;;;;10.68;2.30;;;6.70;99.90;;;;;;4935711;29;20067;-81
2024/01/01 07:33:48;;;;;;;15.15;3.08;;;7.40;99.90;;;;;;4934319;29;20040;-81
2024/01/01 07:36:15;;;;;;;6.43;1.92;;;6.70;99.90;;;;;;4929811;29;20047;-80
2024/01/01 07:38:42;;;;;;;9.00;2.42;;;6.70;99.90;;;;;;4935791;29;20036;-81
2024/01/01 07:41:09;;;;;;;10.13;2.75;;;6.80;99.90;;;;;;4934175;29;20528;-81
2024/01/01 07:43:36;;;;;;;8.57;2.58;;;7.50;99.90;;;;;;4934537;29;20078;-80
2024/01/01 07:46:03;;;;;;;9.38;2.60;;;6.70;99.90;;;;;;4943367;29;20486;-80
2024/01/01 07:48:29;;;;;;;8.93;2.60;;;6.70;99.90;;;;;;4937096;29;20047;-81
2024/01/01 07:50:56;;;;;;;6.18;2.22;;;6.70;99.90;;;;;;4937075;29;20047;-81
2024/01/01 07:53:22;;;;;;;5.68;2.05;;;7.30;99.90;;;;;;4937026;29;20130;-81
2024/01/01 07:55:49;;;;;;;9.90;2.20;;;6.70;99.90;;;;;;4941122;29;20490;-80
2024/01/01 07:58:16;;;;;;;8.65;2.60;;;7.10;99.90;;;;;;4932057;29;20036;-80
2024/01/01 08:00:42;;;;;;;12.85;2.50;;;6.80;99.90;;;;;;4955684;29;20055;-80
2024/01/01 08:03:09;;;;;;;11.95;2.22;;;6.70;99.90;;;;;;4937638;29;20044;-80
2024/01/01 08:05:36;;;;;;;6.80;2.20;;;6.70;99.90;;;;;;4942347;29;20048;-80
2024/01/01 08:08:03;;;;;;;7.68;2.15;;;6.70;99.90;;;;;;4920375;29;20058;-80
2024/01/01 08:10:30;;;;;;;8.57;2.10;;;6.70;99.90;;;;;;4936711;29;20476;-80
2024/01/01 08:12:57;;;;;;;8.10;2.28;;;6.80;99.90;;;;;;4937857;29;20052;-80
2024/01/01 08:15:24;;;;;;;7.55;2.00;;;6.70;99.90;;;;;;4946639;29;20036;-81
2024/01/01 08:17:52;;;;;;;7.13;2.25;;;6.70;99.90;;;;;;4933438;29;20079;-81
2024/01/01 08:20:19;;;;;;;11.23;2.00;;;6.80;99.90;;;;;;4937330;29;20485;-81
2024/01/01 08:22:46;;;;;;;7.93;2.08;;;6.70;99.90;;;;;;4963421;29;20066;-81
2024/01/01 08:25:13;;;;;;;9.10;2.05;;;6.70;99.90;;;;;;4936717;29;20047;-81
2024/01/01 08:27:39;;;;;;;9.07;2.10;;;6.70;99.90;;;;;;4943186;29;20040;-81
2024/01/01 08:30:06;;;;;;;8.80;2.30;;;7.10;99.90;;;;;;4937125;29;20048;-81
2024/01/01 08:32:34;;;;;;;6.40;1.90;;;6.60;99.90;;;;;;4950451;29;20065;-80
2024/01/01 08:35:00;;;;;;;8.23;2.28;;;6.60;99.90;;;;;;4948446;29;20051;-80
2024/01/01 08:37:27;;;;;;;8.07;2.47;;;6.60;99.90;;;;;;4948573;29;20039;-80
2024/01/01 08:39:53;;;;;;;9.00;2.78;;;6.60;99.90;;;;;;4951417;29;20047;-81
2024/01/01 08:42:20;;;;;;;4.53;1.60;;;6.70;99.90;;;;;;4952047;29;20374;-81
2024/01/01 08:44:46;;;;;;;4.70;1.50;;;6.60;99.90;;;;;;4942210;29;20118;-81
2024/01/01 08:47:15;;;;;;;6.45;1.92;;;6.60;99.90;;;;;;4962091;29;20043;-81
2024/01/01 08:49:42;;;;;;;12.82;2.70;;;6.60;99.90;;;;;;4955755;29;20058;-81
2024/01/01 08:52:09;;;;;;;6.15;1.70;;;6.70;99.90;;;;;;4947201;29;20501;-81
2024/01/01 08:54:35;;;;;;;5.72;1.60;;;7.00;99.90;;;;;;4967871;29;20046;-81
2024/01/01 08:57:03;;;;;;;5.60;1.15;;;6.60;99.90;;;;;;4951943;29;20043;-81
2024/01/01 08:59:30;;;;;;;4.97;1.00;;;6.60;99.90;;;;;;4952383;29;20046;-81
2024/01/01 09:01:56;;;;;;;6.38;1.58;;;7.10;99.90;;;;;;4949894;29;20497;-81
2024/01/01 09:04:23;;;;;;;5.35;2.63;;;6.60;99.90;;;;;;4952117;29;20058;-81
2024/01/01 09:06:49;;;;;;;4.25;2.45;;;6.50;99.90;;;;;;4950402;29;20413;-81
2024/01/01 09:09:16;;;;;;;5.60;2.10;;;6.50;99.90;;;;;;4961634;29;20043;-81
2024/01/01 09:11:44;;;;;;;8.65;5.72;;;6.60;99.90;;;;;;4940667;29;20056;-81
2024/01/01 09:14:11;;;;;;;4.82;2.15;;;6.40;99.90;;;;;;4959297;29;20044;-81
2024/01/01 09:16:37;;;;;;;7.70;3.30;;;6.40;99.90;;;;;;4955522;29;20050;-81
2024/01/01 09:19:05;;;;;;;4.85;2.25;;;6.40;99.90;;;;;;4941758;29;20477;-81
2024/01/01 09:21:31;;;;;;;4.88;2.83;;;7.40;99.90;;;;;;4940065;29;20043;-81
2024/01/01 09:24:00;;;;;;;6.95;3.38;;;6.50;99.90;;;;;;4963454;29;20131;-81
2024/01/01 09:26:29;;;;;;;11.77;4.68;;;7.10;99.90;;;;;;4940215;29;20039;-81
2024/01/01 09:28:59;;;;;;;7.93;5.30;;;7.10;99.90;;;;;;4938581;29;20043;-80
2024/01/01 09:31:26;;;;;;;7.80;4.10;;;6.80;99.90;;;;;;4926220;29;20036;-81
2024/01/01 09:33:54;;;;;;;6.25;2.20;;;6.60;99.90;;;;;;4933802;29;20046;-82
2024/01/01 09:36:21;;;;;;;3.80;2.05;;;6.70;99.90;;;;;;4934500;29;20080;-81
2024/01/01 09:38:47;;;;;;;10.05;2.33;;;6.70;99.90;;;;;;4941373;29;20413;-81
2024/01/01 09:41:14;;;;;;;9.65;2.03;;;6.80;99.90;;;;;;4955048;29;20044;-81
2024/01/01 09:43:42;;;;;;;7.47;1.92;;;6.80;99.90;;;;;;4947841;29;20109;-81
2024/01/01 09:46:09;;;;;;;4.50;1.85;;;6.80;99.90;;;;;;4929088;29;20417;-81
2024/01/01 09:48:36;;;;;;;7.68;1.98;;;6.90;99.90;;;;;;4939241;29;20059;-81
2024/01/01 09:51:03;;;;;;;12.85;2.53;;;6.90;99.90;;;;;;4949858;29;20063;-81
2024/01/01 09:53:33;;;;;;;11.57;2.50;;;7.00;99.90;;;;;;4951989;29;20036;-81
2024/01/01 09:55:59;;;;;;;8.05;2.05;;;7.00;99.90;;;;;;4938221;29;20441;-82
2024/01/01 09:58:26;;;;;;;8.43;2.40;;;7.00;99.90;;;;;;4946137;29;20042;-81
2024/01/01 10:00:53;;;;;;;10.18;1.60;;;7.40;99.90;;;;;;4934479;29;20398;-81
2024/01/01 10:03:20;;;;;;;3.78;0.98;;;7.50;99.90;;;;;;4944172;29;20130;-81
2024/01/01 10:05:48;;;;;;;3.47;1.00;;;6.90;99.90;;;;;;4937717;29;20051;-81
2024/01/01 10:08:15;;;;;;;3.50;0.70;;;7.40;99.90;;;;;;4944206;29;20523;-81
2024/01/01 10:10:43;;;;;;;4.38;0.73;;;6.70;99.90;;;;;;4964099;29;20130;-81
2024/01/01 10:13:14;;;;;;;2.92;0.60;;;6.80;99.90;;;;;;4954868;29;20560;-82
2024/01/01 10:15:41;;;;;;;2.08;1.10;;;6.60;99.90;;;;;;4941872;29;20036;-81
2024/01/01 10:18:14;;;;;;;1.40;0.70;;;6.50;99.90;;;;;;4962131;29;20083;-81
2024/01/01 10:20:44;;;;;;;6.10;3.33;;;6.50;99.90;;;;;;4951627;29;20044;-81
2024/01/01 10:23:20;;;;;;;2.33;0.77;;;6.50;99.90;;;;;;4945367;29;20412;-81
2024/01/01 10:25:49;;;;;;;;;;;6.40;99.90;;;;;;4946993;29;20103;-80
2024/01/01 10:28:16;;;;;;;7.00;1.83;;;6.40;99.90;;;;;;4970615;29;19976;-82
2024/01/01 10:30:49;;;;;;;2.55;1.00;;;6.50;99.90;;;;;;4954179;29;20071;-81
2024/01/01 10:33:17;;;;;;;7.18;1.27;;;6.50;99.90;;;;;;4941979;29;20128;-81
2024/01/01 10:35:44;;;;;;;5.28;1.90;;;6.50;99.90;;;;;;4954532;29;20043;-80
2024/01/01 10:38:11;;;;;;;11.00;2.38;;;6.60;99.90;;;;;;4970099;29;20508;-81
2024/01/01 10:40:38;;;;;;;9.43;2.22;;;6.80;99.90;;;;;;4954148;29;20549;-81
2024/01/01 10:43:07;;;;;;;11.00;2.30;;;6.90;99.90;;;;;;4947225;29;20044;-82
2024/01/01 10:45:33;;;;;;;16.15;2.60;;;6.90;99.90;;;;;;4954561;29;20090;-81
2024/01/01 10:48:05;;;;;;;11.27;2.35;;;7.00;99.90;;;;;;4953330;29;20039;-82
2024/01/01 10:50:38;;;;;;;12.52;2.97;;;7.00;99.90;;;;;;4970324;29;20095;-82
2024/01/01 10:53:13;;;;;;;11.75;2.15;;;7.10;99.90;;;;;;4967655;29;20040;-82
2024/01/01 10:55:48;;;;;;;9.75;2.05;;;7.10;99.90;;;;;;4937843;29;20084;-82
2024/01/01 10:58:27;;;;;;;12.10;2.67;;;7.10;99.90;;;;;;4953779;29;20497;-82
2024/01/01 11:01:04;;;;;;;7.40;1.98;;;7.10;99.90;;;;;;4953368;29;20141;-81
2024/01/01 11:03:34;;;;;;;8.95;2.20;;;7.10;99.90;;;;;;4967926;29;20054;-82
2024/01/01 11:06:27;;;;;;;8.85;2.53;;;7.20;99.90;;;;;;4955022;29;20075;-82
2024/01/01 11:08:58;;;;;;;12.55;3.17;;;7.20;99.90;;;;;;4951619;29;20097;-81
2024/01/01 11:11:32;;;;;;;11.02;3.00;;;7.20;99.90;;;;;;4969073;29;20052;-81
2024/01/01 11:14:00;;;;;;;17.05;2.97;;;7.30;99.90;;;;;;4953569;29;20047;-81
2024/01/01 11:16:53;;;;;;;8.43;2.00;;;7.80;99.90;;;;;;4969161;29;20040;-81
2024/01/01 11:19:41;;;;;;;13.45;2.97;;;7.20;99.90;;;;;;4953477;29;20116;-81
2024/01/01 11:22:20;;;;;;;14.35;4.68;;;7.30;99.90;;;;;;4936027;29;20040;-81
2024/01/01 11:24:47;;;;;;;13.23;2.80;;;7.40;99.90;;;;;;4937195;29;20572;-81
2024/01/01 11:27:51;;;;;;;7.65;1.92;;;7.20;99.90;;;;;;4940586;29;20092;-81
2024/01/01 11:30:17;;;;;;;6.93;2.67;;;7.20;99.90;;;;;;4937426;29;20044;-81
2024/01/01 11:32:44;;;;;;;7.75;2.15;;;7.20;99.90;;;;;;4958518;29;20051;-81
2024/01/01 11:35:17;;;;;;;9.38;2.60;;;7.20;99.90;;;;;;4946950;29;20382;-81
2024/01/01 11:37:45;;;;;;;11.15;2.50;;;7.50;99.90;;;;;;4940009;29;20055;-81
2024/01/01 11:40:12;;;;;;;5.18;1.50;;;7.30;99.90;;;;;;4946240;29;20457;-81
2024/01/01 11:42:40;;;;;;;14.75;2.58;;;7.30;99.90;;;;;;4945354;29;20417;-81
2024/01/01 11:45:08;;;;;;;14.68;4.70;;;7.30;99.90;;;;;;4968104;29;20130;-81
2024/01/01 11:47:35;;;;;;;12.30;2.60;;;7.50;99.90;;;;;;4978804;29;20046;-81
2024/01/01 11:50:02;;;;;;;11.63;4.00;;;7.40;99.90;;;;;;4971583;29;20175;-81
2024/01/01 11:52:30;;;;;;;13.35;3.70;;;7.50;99.90;;;;;;4952110;29;20046;-81
2024/01/01 11:54:57;;;;;;;11.07;2.63;;;7.70;99.90;;;;;;4949154;29;20512;-81
2024/01/01 11:57:23;;;;;;;10.82;2.35;;;7.70;99.90;;;;;;4951820;29;20042;-81
2024/01/01 11:59:50;;;;;;;6.22;2.00;;;7.80;99.90;;;;;;4962257;29;20115;-81
2024/01/01 12:02:18;;;;;;;9.15;2.30;;;7.80;99.90;;;;;;4952594;29;20043;-81
2024/01/01 12:04:50;;;;;;;11.02;2.25;;;7.70;99.90;;;;;;4952767;29;20054;-81
2024/01/01 12:07:30;;;;;;;12.30;2.20;;;8.00;99.90;;;;;;4937754;29;20123;-81
2024/01/01 12:10:10;;;;;;;10.70;2.05;;;7.80;99.90;;;;;;4952348;29;20052;-81
2024/01/01 12:12:39;;;;;;;16.58;2.00;;;8.10;99.90;;;;;;4949275;29;20043;-81
2024/01/01 12:15:11;;;;;;;12.45;2.45;;;7.90;99.90;;;;;;4959876;29;20071;-81
2024/01/01 12:17:56;;;;;;;10.70;2.55;;;7.80;99.90;;;;;;4948010;29;20418;-81
2024/01/01 12:20:24;;;;;;;10.23;1.92;;;7.90;99.90;;;;;;4940869;29;20104;-81
2024/01/01 12:22:52;;;;;;;13.75;2.50;;;7.80;99.90;;;;;;4952396;29;20505;-81
2024/01/01 12:25:20;;;;;;;11.48;2.83;;;7.90;99.90;;;;;;4952389;29;20055;-81
2024/01/01 12:28:07;;;;;;;15.55;2.17;;;7.80;99.90;;;;;;4957403;29;20071;-81
2024/01/01 12:30:35;;;;;;;9.70;1.98;;;7.80;99.90;;;;;;4943943;29;20059;-81
2024/01/01 12:33:03;;;;;;;12.23;2.45;;;8.20;99.90;;;;;;4948847;29;20036;-81
2024/01/01 12:35:30;;;;;;;9.48;1.75;;;7.80;99.90;;;;;;4967838;29;20110;-81
2024/01/01 12:37:56;;;;;;;9.18;1.73;;;8.30;99.90;;;;;;4948039;29;20175;-81
2024/01/01 12:40:25;;;;;;;9.50;1.92;;;7.80;99.90;;;;;;4952360;29;20047;-81
2024/01/01 12:42:52;;;;;;;16.00;2.38;;;7.80;99.90;;;;;;4968317;29;20061;-81
2024/01/01 12:45:18;;;;;;;30.63;11.05;;;7.70;99.90;;;;;;4968201;29;20546;-82
2024/01/01 12:47:45;;;;;;;10.57;2.00;;;7.70;99.90;;;;;;4967831;29;20056;-81
2024/01/01 12:50:12;;;;;;;9.13;2.30;;;7.60;99.90;;;;;;4967538;29;20465;-81